createdAt,value
2018-08-27T00:00:56.074Z,46.90
2018-08-27T00:01:58.324Z,46.90
2018-08-27T00:03:00.495Z,46.90
2018-08-27T00:04:02.733Z,46.80
2018-08-27T00:05:04.911Z,47.00
2018-08-27T00:06:07.068Z,46.80
2018-08-27T00:07:09.215Z,47.20
2018-08-27T00:08:11.361Z,47.00
2018-08-27T00:09:13.513Z,47.10
2018-08-27T00:10:15.673Z,47.20
2018-08-27T00:11:17.885Z,47.40
2018-08-27T00:12:20.068Z,46.90
2018-08-27T00:13:22.221Z,46.80
2018-08-27T00:14:24.386Z,47.90
2018-08-27T00:15:27.328Z,47.60
2018-08-27T00:16:29.542Z,47.40
2018-08-27T00:17:31.707Z,47.50
2018-08-27T00:18:33.871Z,48.10
2018-08-27T00:19:36.019Z,47.00
2018-08-27T00:20:38.225Z,47.10
2018-08-27T00:21:40.385Z,47.40
2018-08-27T00:22:42.565Z,47.40
2018-08-27T00:23:44.717Z,47.50
2018-08-27T00:24:47.005Z,47.80
2018-08-27T00:25:49.153Z,48.20
2018-08-27T00:26:51.332Z,47.70
2018-08-27T00:27:53.493Z,47.80
2018-08-27T00:28:55.646Z,47.90
2018-08-27T00:29:57.809Z,48.50
2018-08-27T00:30:59.968Z,48.10
2018-08-27T00:32:02.125Z,48.30
2018-08-27T00:33:04.964Z,48.00
2018-08-27T00:34:07.105Z,48.10
2018-08-27T00:35:09.522Z,47.90
2018-08-27T00:36:11.937Z,48.20
2018-08-27T00:37:14.093Z,48.20
2018-08-27T00:38:16.252Z,48.30
2018-08-27T00:39:18.445Z,48.40
2018-08-27T00:40:20.633Z,48.10
2018-08-27T00:41:22.810Z,48.00
2018-08-27T00:42:25.023Z,47.90
2018-08-27T00:43:27.192Z,48.80
2018-08-27T00:44:29.350Z,48.40
2018-08-27T00:45:31.760Z,48.50
2018-08-27T00:46:33.926Z,48.40
2018-08-27T00:47:36.134Z,48.40
2018-08-27T00:48:38.293Z,48.30
2018-08-27T00:49:40.457Z,48.40
2018-08-27T00:50:42.836Z,48.50
2018-08-27T00:51:44.993Z,48.50
2018-08-27T00:52:47.137Z,48.20
2018-08-27T00:53:49.490Z,48.50
2018-08-27T00:54:51.682Z,48.40
2018-08-27T00:55:53.851Z,48.60
2018-08-27T00:56:56.278Z,48.60
2018-08-27T00:57:58.419Z,48.50
2018-08-27T00:59:00.581Z,48.40
2018-08-27T01:00:02.746Z,48.50
2018-08-27T01:01:05.218Z,48.70
2018-08-27T01:02:07.375Z,48.40
2018-08-27T01:03:09.557Z,48.60
2018-08-27T01:04:11.713Z,48.50
2018-08-27T01:05:13.857Z,48.50
2018-08-27T01:06:16.296Z,48.50
2018-08-27T01:07:18.453Z,48.80
2018-08-27T01:08:20.641Z,48.60
2018-08-27T01:09:22.814Z,48.40
2018-08-27T01:10:24.973Z,48.70
2018-08-27T01:11:27.158Z,48.90
2018-08-27T01:12:29.312Z,49.70
2018-08-27T01:13:31.481Z,49.70
2018-08-27T01:14:33.633Z,49.00
2018-08-27T01:15:35.796Z,48.80
2018-08-27T01:16:37.953Z,49.00
2018-08-27T01:17:40.101Z,48.70
2018-08-27T01:18:42.270Z,48.60
2018-08-27T01:19:44.471Z,48.50
2018-08-27T01:20:46.689Z,48.60
2018-08-27T01:21:48.882Z,48.70
2018-08-27T01:22:51.597Z,48.70
2018-08-27T01:23:54.188Z,49.40
2018-08-27T01:24:56.392Z,48.70
2018-08-27T01:25:58.565Z,48.80
2018-08-27T01:27:00.945Z,48.70
2018-08-27T01:28:03.101Z,48.70
2018-08-27T01:29:05.274Z,48.90
2018-08-27T01:30:07.487Z,48.90
2018-08-27T01:31:09.649Z,48.70
2018-08-27T01:32:17.746Z,49.00
2018-08-27T01:33:19.887Z,48.80
2018-08-27T01:34:22.077Z,48.50
2018-08-27T01:35:24.449Z,48.50
2018-08-27T01:36:26.639Z,49.20
2018-08-27T01:37:28.794Z,48.30
2018-08-27T01:38:30.957Z,48.40
2018-08-27T01:39:33.667Z,48.70
2018-08-27T01:40:35.819Z,48.70
2018-08-27T01:41:37.969Z,48.80
2018-08-27T01:42:40.109Z,48.80
2018-08-27T01:43:42.507Z,49.30
2018-08-27T01:44:44.669Z,48.80
2018-08-27T01:45:46.853Z,48.20
2018-08-27T01:46:49.010Z,47.90
2018-08-27T01:47:51.180Z,48.00
2018-08-27T01:48:53.509Z,48.00
2018-08-27T01:49:55.690Z,47.30
2018-08-27T01:50:57.834Z,47.40
2018-08-27T01:52:00.017Z,47.40
2018-08-27T01:53:02.160Z,47.50
2018-08-27T01:54:04.350Z,47.40
2018-08-27T01:55:06.530Z,47.80
2018-08-27T01:56:08.726Z,47.70
2018-08-27T01:57:10.878Z,47.40
2018-08-27T01:58:13.085Z,47.40
2018-08-27T01:59:15.517Z,47.50
2018-08-27T02:00:17.726Z,47.50
2018-08-27T02:01:21.104Z,47.20
2018-08-27T02:02:23.593Z,47.00
2018-08-27T02:03:25.790Z,47.10
2018-08-27T02:04:27.944Z,47.80
2018-08-27T02:05:30.146Z,47.50
2018-08-27T02:06:37.087Z,47.40
2018-08-27T02:07:39.267Z,47.60
2018-08-27T02:08:41.406Z,47.60
2018-08-27T02:09:43.545Z,48.40
2018-08-27T02:10:45.744Z,47.50
2018-08-27T02:11:47.925Z,47.60
2018-08-27T02:12:50.070Z,47.50
2018-08-27T02:13:52.296Z,47.60
2018-08-27T02:14:54.484Z,47.50
2018-08-27T02:15:56.711Z,47.40
2018-08-27T02:16:59.006Z,47.50
2018-08-27T02:18:01.205Z,47.60
2018-08-27T02:19:03.422Z,47.50
2018-08-27T02:20:05.628Z,47.30
2018-08-27T02:21:07.789Z,47.20
2018-08-27T02:22:10.162Z,47.30
2018-08-27T02:23:12.361Z,47.30
2018-08-27T02:24:14.574Z,47.80
2018-08-27T02:25:16.752Z,47.00
2018-08-27T02:26:18.901Z,46.80
2018-08-27T02:27:21.097Z,46.50
2018-08-27T02:28:23.502Z,46.60
2018-08-27T02:29:25.676Z,46.50
2018-08-27T02:30:27.842Z,46.50
2018-08-27T02:31:30.035Z,46.60
2018-08-27T02:32:32.188Z,46.50
2018-08-27T02:33:34.400Z,46.50
2018-08-27T02:34:36.662Z,46.50
2018-08-27T02:35:38.850Z,46.50
2018-08-27T02:36:41.202Z,46.90
2018-08-27T02:37:43.448Z,46.60
2018-08-27T02:38:45.742Z,46.40
2018-08-27T02:39:47.901Z,46.80
2018-08-27T02:40:50.089Z,46.60
2018-08-27T02:41:52.286Z,46.60
2018-08-27T02:42:54.508Z,46.90
2018-08-27T02:43:56.652Z,47.10
2018-08-27T02:44:58.908Z,47.00
2018-08-27T02:46:01.069Z,47.00
2018-08-27T02:47:03.312Z,47.20
2018-08-27T02:48:05.485Z,48.10
2018-08-27T02:49:07.685Z,47.30
2018-08-27T02:50:09.833Z,47.30
2018-08-27T02:51:11.973Z,47.20
2018-08-27T02:52:14.421Z,47.10
2018-08-27T02:53:16.585Z,47.10
2018-08-27T02:54:18.782Z,47.00
2018-08-27T02:55:20.995Z,46.50
2018-08-27T02:56:23.210Z,47.90
2018-08-27T02:57:25.388Z,47.10
2018-08-27T02:58:27.542Z,47.20
2018-08-27T02:59:29.698Z,47.00
2018-08-27T03:00:32.166Z,46.90
2018-08-27T03:01:34.530Z,46.60
2018-08-27T03:02:36.686Z,46.40
2018-08-27T03:03:38.817Z,46.40
2018-08-27T03:04:40.970Z,46.40
2018-08-27T03:05:43.156Z,46.50
2018-08-27T03:06:45.338Z,46.80
2018-08-27T03:07:47.490Z,46.90
2018-08-27T03:08:49.646Z,47.10
2018-08-27T03:09:52.030Z,47.40
2018-08-27T03:10:54.561Z,47.60
2018-08-27T03:11:56.752Z,47.50
2018-08-27T03:12:58.889Z,47.30
2018-08-27T03:14:01.259Z,47.20
2018-08-27T03:15:03.553Z,46.90
2018-08-27T03:16:07.031Z,46.90
2018-08-27T03:17:09.201Z,47.90
2018-08-27T03:18:11.367Z,47.10
2018-08-27T03:19:13.513Z,47.50
2018-08-27T03:20:16.197Z,47.20
2018-08-27T03:21:18.346Z,47.90
2018-08-27T03:22:20.477Z,47.40
2018-08-27T03:23:22.621Z,47.50
2018-08-27T03:24:24.847Z,47.50
2018-08-27T03:25:27.288Z,47.50
2018-08-27T03:26:29.684Z,47.30
2018-08-27T03:27:31.831Z,47.10
2018-08-27T03:28:33.962Z,47.10
2018-08-27T03:29:36.118Z,47.00
2018-08-27T03:30:38.322Z,47.30
2018-08-27T03:31:40.513Z,47.20
2018-08-27T03:32:42.993Z,46.80
2018-08-27T03:33:45.186Z,46.80
2018-08-27T03:34:47.371Z,47.20
2018-08-27T03:35:49.556Z,47.50
2018-08-27T03:36:52.017Z,47.20
2018-08-27T03:37:54.185Z,46.90
2018-08-27T03:38:56.362Z,46.90
2018-08-27T03:39:58.930Z,47.10
2018-08-27T03:41:01.069Z,47.20
2018-08-27T03:42:03.398Z,47.10
2018-08-27T03:43:05.901Z,47.20
2018-08-27T03:44:08.077Z,47.10
2018-08-27T03:45:10.236Z,47.40
2018-08-27T03:46:12.400Z,47.50
2018-08-27T03:47:14.553Z,47.60
2018-08-27T03:48:16.709Z,47.60
2018-08-27T03:49:18.866Z,47.40
2018-08-27T03:50:21.058Z,47.30
2018-08-27T03:51:23.221Z,47.20
2018-08-27T03:52:25.401Z,47.20
2018-08-27T03:53:27.549Z,47.20
2018-08-27T03:54:29.814Z,47.50
2018-08-27T03:55:31.950Z,47.70
2018-08-27T03:56:34.122Z,47.80
2018-08-27T03:57:36.304Z,47.80
2018-08-27T03:58:38.445Z,47.80
2018-08-27T03:59:40.573Z,47.60
2018-08-27T04:00:42.727Z,47.50
2018-08-27T04:01:44.857Z,47.60
2018-08-27T04:02:47.004Z,47.80
2018-08-27T04:03:49.206Z,47.50
2018-08-27T04:04:51.387Z,47.30
2018-08-27T04:05:53.549Z,47.50
2018-08-27T04:06:55.741Z,47.90
2018-08-27T04:07:57.960Z,47.90
2018-08-27T04:09:00.131Z,47.90
2018-08-27T04:10:02.470Z,47.80
2018-08-27T04:11:04.847Z,47.90
2018-08-27T04:12:07.018Z,47.70
2018-08-27T04:13:09.315Z,47.70
2018-08-27T04:14:11.527Z,47.50
2018-08-27T04:15:13.695Z,47.50
2018-08-27T04:16:15.850Z,47.80
2018-08-27T04:17:23.626Z,47.60
2018-08-27T04:18:25.793Z,47.40
2018-08-27T04:19:28.236Z,47.10
2018-08-27T04:20:30.401Z,47.10
2018-08-27T04:21:32.558Z,46.90
2018-08-27T04:22:34.713Z,47.00
2018-08-27T04:23:36.862Z,46.90
2018-08-27T04:24:39.013Z,47.70
2018-08-27T04:25:41.576Z,47.50
2018-08-27T04:26:43.780Z,47.40
2018-08-27T04:27:45.968Z,46.90
2018-08-27T04:28:48.139Z,46.40
2018-08-27T04:29:50.721Z,46.40
2018-08-27T04:30:52.874Z,46.50
2018-08-27T04:31:55.038Z,47.20
2018-08-27T04:32:57.252Z,47.40
2018-08-27T04:33:59.404Z,47.10
2018-08-27T04:35:01.606Z,46.90
2018-08-27T04:36:03.767Z,46.80
2018-08-27T04:37:06.027Z,46.70
2018-08-27T04:38:08.255Z,46.70
2018-08-27T04:39:14.475Z,46.50
2018-08-27T04:40:16.670Z,46.70
2018-08-27T04:41:18.911Z,46.70
2018-08-27T04:42:21.078Z,46.50
2018-08-27T04:43:23.276Z,46.50
2018-08-27T04:44:25.459Z,46.50
2018-08-27T04:45:27.618Z,46.50
2018-08-27T04:46:29.780Z,46.60
2018-08-27T04:47:31.959Z,46.50
2018-08-27T04:48:34.122Z,46.60
2018-08-27T04:49:36.330Z,46.60
2018-08-27T04:50:38.524Z,47.00
2018-08-27T04:51:40.741Z,47.10
2018-08-27T04:52:42.932Z,46.60
2018-08-27T04:53:46.043Z,47.20
2018-08-27T04:54:48.195Z,47.10
2018-08-27T04:55:50.353Z,47.00
2018-08-27T04:56:52.501Z,47.40
2018-08-27T04:57:54.671Z,47.50
2018-08-27T04:59:02.722Z,47.30
2018-08-27T05:01:10.301Z,47.70
2018-08-27T05:02:12.541Z,47.50
2018-08-27T05:03:14.710Z,47.10
2018-08-27T05:04:16.877Z,47.10
2018-08-27T05:05:19.438Z,47.50
2018-08-27T05:06:21.584Z,47.40
2018-08-27T05:07:23.749Z,47.10
2018-08-27T05:08:25.941Z,47.10
2018-08-27T05:09:28.091Z,47.50
2018-08-27T05:10:30.266Z,47.40
2018-08-27T05:11:32.872Z,47.10
2018-08-27T05:12:35.136Z,46.40
2018-08-27T05:13:37.214Z,47.20
2018-08-27T05:14:39.356Z,46.90
2018-08-27T05:15:41.504Z,46.90
2018-08-27T05:16:43.693Z,46.50
2018-08-27T05:17:46.122Z,46.50
2018-08-27T05:18:48.381Z,47.20
2018-08-27T05:19:50.556Z,46.70
2018-08-27T05:20:52.698Z,46.50
2018-08-27T05:21:54.854Z,46.50
2018-08-27T05:22:57.024Z,46.60
2018-08-27T05:23:59.273Z,46.60
2018-08-27T05:25:01.472Z,46.10
2018-08-27T05:26:03.594Z,45.90
2018-08-27T05:27:05.733Z,46.00
2018-08-27T05:28:07.872Z,46.10
2018-08-27T05:29:10.842Z,46.30
2018-08-27T05:30:13.122Z,45.90
2018-08-27T05:31:15.613Z,47.10
2018-08-27T05:32:18.118Z,46.10
2018-08-27T05:33:20.310Z,46.30
2018-08-27T05:34:22.494Z,46.40
2018-08-27T05:35:24.681Z,46.20
2018-08-27T05:36:26.853Z,46.50
2018-08-27T05:37:29.057Z,45.50
2018-08-27T05:38:31.394Z,46.20
2018-08-27T05:39:33.521Z,46.10
2018-08-27T05:40:35.754Z,46.20
2018-08-27T05:41:38.331Z,46.30
2018-08-27T05:42:40.526Z,46.50
2018-08-27T05:43:42.746Z,46.10
2018-08-27T05:44:44.922Z,45.80
2018-08-27T05:45:47.168Z,46.30
2018-08-27T05:46:49.343Z,46.40
2018-08-27T05:47:51.670Z,46.40
2018-08-27T05:48:54.061Z,45.90
2018-08-27T05:49:56.237Z,46.50
2018-08-27T05:50:58.390Z,46.10
2018-08-27T05:52:00.650Z,45.80
2018-08-27T05:53:02.821Z,46.60
2018-08-27T05:54:05.009Z,46.60
2018-08-27T05:55:07.173Z,46.40
2018-08-27T05:56:09.329Z,46.30
2018-08-27T05:57:11.494Z,45.80
2018-08-27T05:58:13.996Z,45.80
2018-08-27T05:59:20.749Z,45.70
2018-08-27T06:00:22.918Z,45.40
2018-08-27T06:01:25.539Z,45.30
2018-08-27T06:02:27.657Z,46.00
2018-08-27T06:03:29.797Z,46.20
2018-08-27T06:04:31.958Z,46.40
2018-08-27T06:05:34.125Z,46.00
2018-08-27T06:06:36.272Z,45.60
2018-08-27T06:07:38.475Z,45.60
2018-08-27T06:08:40.630Z,46.10
2018-08-27T06:09:43.137Z,45.70
2018-08-27T06:10:45.770Z,45.70
2018-08-27T06:11:47.978Z,45.40
2018-08-27T06:12:50.113Z,48.70
2018-08-27T06:13:52.294Z,48.20
2018-08-27T06:14:54.443Z,46.70
2018-08-27T06:15:56.597Z,46.80
2018-08-27T06:16:58.745Z,45.90
2018-08-27T06:18:00.894Z,45.40
2018-08-27T06:19:03.056Z,44.90
2018-08-27T06:20:05.753Z,44.80
2018-08-27T06:21:07.907Z,45.10
2018-08-27T06:22:10.107Z,44.90
2018-08-27T06:23:12.233Z,44.90
2018-08-27T06:24:14.722Z,44.90
2018-08-27T06:25:16.950Z,44.90
2018-08-27T06:26:19.115Z,44.70
2018-08-27T06:27:21.344Z,44.90
2018-08-27T06:28:23.489Z,44.70
2018-08-27T06:29:25.703Z,45.00
2018-08-27T06:30:27.909Z,44.90
2018-08-27T06:31:30.634Z,45.20
2018-08-27T06:32:32.871Z,45.40
2018-08-27T06:33:34.997Z,45.40
2018-08-27T06:34:37.153Z,45.40
2018-08-27T06:35:39.321Z,45.40
2018-08-27T06:36:41.767Z,44.80
2018-08-27T06:37:43.928Z,45.20
2018-08-27T06:38:46.090Z,44.80
2018-08-27T06:39:48.247Z,44.60
2018-08-27T06:40:50.409Z,44.60
2018-08-27T06:41:52.590Z,44.60
2018-08-27T06:42:54.725Z,45.40
2018-08-27T06:43:56.876Z,45.30
2018-08-27T06:44:59.083Z,45.20
2018-08-27T06:46:01.360Z,45.20
2018-08-27T06:47:03.911Z,46.10
2018-08-27T06:48:06.105Z,45.00
2018-08-27T06:49:08.279Z,44.70
2018-08-27T06:50:10.499Z,45.10
2018-08-27T06:51:12.659Z,45.20
2018-08-27T06:52:14.836Z,45.30
2018-08-27T06:53:17.113Z,44.90
2018-08-27T06:54:19.277Z,45.10
2018-08-27T06:55:21.493Z,45.40
2018-08-27T06:56:23.656Z,45.60
2018-08-27T06:57:26.025Z,44.70
2018-08-27T06:58:28.194Z,44.20
2018-08-27T06:59:31.221Z,44.50
2018-08-27T07:00:33.376Z,44.40
2018-08-27T07:01:35.580Z,44.40
2018-08-27T07:02:37.742Z,44.50
2018-08-27T07:03:39.901Z,44.30
2018-08-27T07:04:42.109Z,44.40
2018-08-27T07:05:44.334Z,44.20
2018-08-27T07:06:46.564Z,44.50
2018-08-27T07:07:48.803Z,44.20
2018-08-27T07:08:50.921Z,44.50
2018-08-27T07:09:53.110Z,44.70
2018-08-27T07:10:55.326Z,44.90
2018-08-27T07:11:57.485Z,45.00
2018-08-27T07:12:59.658Z,44.90
2018-08-27T07:14:01.828Z,44.50
2018-08-27T07:15:04.905Z,44.50
2018-08-27T07:16:07.212Z,45.80
2018-08-27T07:17:09.337Z,45.10
2018-08-27T07:18:11.554Z,44.50
2018-08-27T07:19:13.707Z,45.00
2018-08-27T07:20:15.930Z,44.30
2018-08-27T07:21:18.026Z,44.60
2018-08-27T07:22:20.484Z,44.40
2018-08-27T07:23:22.643Z,44.00
2018-08-27T07:24:24.806Z,44.70
2018-08-27T07:25:27.442Z,44.50
2018-08-27T07:26:29.565Z,44.10
2018-08-27T07:27:31.875Z,44.40
2018-08-27T07:28:34.177Z,44.40
2018-08-27T07:29:36.358Z,43.60
2018-08-27T07:30:38.770Z,43.20
2018-08-27T07:31:40.970Z,44.90
2018-08-27T07:32:43.137Z,44.30
2018-08-27T07:33:45.646Z,44.30
2018-08-27T07:34:47.801Z,44.40
2018-08-27T07:35:49.974Z,44.30
2018-08-27T07:36:52.422Z,43.70
2018-08-27T07:37:54.658Z,43.90
2018-08-27T07:38:57.085Z,43.20
2018-08-27T07:39:59.234Z,42.70
2018-08-27T07:41:01.707Z,42.90
2018-08-27T07:42:03.913Z,42.80
2018-08-27T07:43:06.099Z,42.70
2018-08-27T07:44:08.984Z,42.40
2018-08-27T07:45:11.154Z,42.40
2018-08-27T07:46:13.411Z,42.50
2018-08-27T07:47:15.789Z,42.50
2018-08-27T07:48:18.562Z,43.10
2018-08-27T07:49:20.728Z,43.00
2018-08-27T07:50:23.049Z,42.70
2018-08-27T07:51:25.269Z,42.10
2018-08-27T07:52:27.437Z,41.60
2018-08-27T07:53:29.641Z,41.90
2018-08-27T07:54:31.834Z,43.20
2018-08-27T07:55:33.953Z,44.00
2018-08-27T07:56:36.160Z,41.60
2018-08-27T07:57:38.333Z,43.10
2018-08-27T07:58:41.661Z,41.50
2018-08-27T07:59:43.925Z,42.60
2018-08-27T08:00:46.089Z,41.30
2018-08-27T08:01:48.254Z,40.40
2018-08-27T08:02:51.620Z,40.50
2018-08-27T08:03:53.771Z,40.80
2018-08-27T08:04:55.962Z,39.40
2018-08-27T08:05:58.157Z,40.80
2018-08-27T08:07:00.343Z,40.70
2018-08-27T08:08:02.537Z,40.70
2018-08-27T08:09:06.804Z,39.40
2018-08-27T08:10:09.242Z,39.30
2018-08-27T08:11:11.488Z,40.70
2018-08-27T08:12:13.634Z,40.70
2018-08-27T08:13:15.789Z,39.80
2018-08-27T08:14:18.193Z,41.10
2018-08-27T08:15:20.883Z,40.70
2018-08-27T08:16:23.037Z,39.80
2018-08-27T08:17:25.307Z,41.30
2018-08-27T08:18:27.534Z,40.70
2018-08-27T08:19:29.716Z,40.80
2018-08-27T08:20:31.878Z,38.80
2018-08-27T08:21:34.086Z,40.40
2018-08-27T08:22:36.241Z,40.00
2018-08-27T08:23:38.465Z,39.30
2018-08-27T08:24:40.701Z,39.90
2018-08-27T08:25:42.862Z,40.90
2018-08-27T08:26:45.076Z,39.80
2018-08-27T08:27:47.240Z,41.30
2018-08-27T08:28:49.377Z,39.90
2018-08-27T08:29:51.547Z,40.50
2018-08-27T08:30:53.729Z,39.90
2018-08-27T08:31:55.896Z,40.80
2018-08-27T08:32:58.070Z,41.00
2018-08-27T08:34:00.648Z,39.80
2018-08-27T08:35:02.833Z,39.80
2018-08-27T08:36:05.039Z,41.10
2018-08-27T08:37:07.242Z,39.80
2018-08-27T08:38:09.408Z,39.70
2018-08-27T08:39:11.561Z,41.70
2018-08-27T08:40:13.815Z,40.00
2018-08-27T08:41:15.973Z,40.20
2018-08-27T08:42:18.359Z,40.90
2018-08-27T08:43:20.513Z,40.90
2018-08-27T08:44:22.730Z,41.50
2018-08-27T08:45:24.903Z,40.80
2018-08-27T08:46:27.105Z,41.00
2018-08-27T08:47:29.309Z,40.90
2018-08-27T08:48:31.464Z,40.90
2018-08-27T08:49:33.622Z,41.80
2018-08-27T08:50:35.773Z,41.80
2018-08-27T08:51:37.921Z,41.90
2018-08-27T08:52:40.078Z,42.10
2018-08-27T08:53:42.225Z,41.70
2018-08-27T08:54:44.615Z,41.50
2018-08-27T08:55:46.765Z,41.90
2018-08-27T08:56:48.937Z,42.40
2018-08-27T08:57:51.118Z,42.50
2018-08-27T08:58:53.294Z,42.80
2018-08-27T08:59:55.581Z,42.40
2018-08-27T09:00:57.741Z,42.50
2018-08-27T09:01:59.933Z,42.10
2018-08-27T09:03:02.150Z,42.30
2018-08-27T09:04:04.433Z,42.10
2018-08-27T09:05:06.624Z,42.50
2018-08-27T09:06:08.765Z,42.50
2018-08-27T09:07:11.530Z,42.20
2018-08-27T09:08:13.799Z,41.50
2018-08-27T09:09:15.834Z,42.20
2018-08-27T09:10:17.985Z,42.20
2018-08-27T09:11:20.121Z,42.30
2018-08-27T09:12:22.312Z,42.10
2018-08-27T09:13:24.467Z,42.10
2018-08-27T09:14:26.779Z,41.70
2018-08-27T09:15:28.978Z,41.50
2018-08-27T09:16:31.138Z,41.70
2018-08-27T09:17:33.327Z,41.30
2018-08-27T09:18:35.731Z,41.50
2018-08-27T09:19:37.881Z,41.30
2018-08-27T09:20:40.026Z,41.50
2018-08-27T09:21:42.184Z,41.30
2018-08-27T09:22:44.409Z,41.40
2018-08-27T09:23:46.596Z,41.30
2018-08-27T09:24:48.718Z,42.00
2018-08-27T09:25:50.897Z,42.40
2018-08-27T09:26:53.300Z,42.10
2018-08-27T09:27:55.480Z,42.20
2018-08-27T09:28:57.916Z,43.20
2018-08-27T09:30:00.313Z,43.40
2018-08-27T09:31:02.461Z,43.20
2018-08-27T09:32:04.637Z,43.20
2018-08-27T09:33:06.896Z,43.40
2018-08-27T09:34:09.102Z,44.20
2018-08-27T09:35:11.265Z,44.40
2018-08-27T09:36:13.421Z,44.20
2018-08-27T09:37:15.581Z,44.60
2018-08-27T09:38:18.074Z,44.80
2018-08-27T09:39:20.257Z,45.00
2018-08-27T09:40:22.725Z,45.20
2018-08-27T09:41:24.875Z,45.10
2018-08-27T09:42:27.068Z,45.20
2018-08-27T09:43:29.402Z,44.90
2018-08-27T09:44:31.550Z,45.00
2018-08-27T09:45:33.765Z,45.00
2018-08-27T09:46:35.991Z,44.90
2018-08-27T09:47:38.166Z,44.90
2018-08-27T09:48:40.318Z,44.80
2018-08-27T09:49:42.514Z,44.60
2018-08-27T09:50:44.684Z,44.00
2018-08-27T09:51:47.086Z,43.70
2018-08-27T09:52:49.286Z,43.60
2018-08-27T09:53:51.466Z,43.80
2018-08-27T09:54:53.626Z,43.40
2018-08-27T09:55:56.040Z,43.80
2018-08-27T09:56:58.428Z,43.90
2018-08-27T09:58:00.574Z,43.70
2018-08-27T09:59:02.796Z,43.80
2018-08-27T10:00:05.177Z,43.40
2018-08-27T10:01:13.265Z,43.20
2018-08-27T10:02:15.748Z,43.30
2018-08-27T10:03:17.906Z,43.10
2018-08-27T10:04:20.101Z,43.00
2018-08-27T10:05:22.262Z,43.20
2018-08-27T10:06:24.478Z,42.90
2018-08-27T10:07:26.643Z,42.60
2018-08-27T10:08:28.991Z,42.60
2018-08-27T10:09:31.146Z,42.40
2018-08-27T10:10:33.321Z,43.10
2018-08-27T10:11:35.479Z,42.70
2018-08-27T10:12:37.633Z,42.40
2018-08-27T10:13:39.825Z,42.20
2018-08-27T10:14:42.033Z,42.60
2018-08-27T10:15:44.188Z,42.80
2018-08-27T10:16:46.471Z,42.70
2018-08-27T10:17:48.669Z,42.30
2018-08-27T10:18:50.818Z,42.90
2018-08-27T10:19:53.219Z,42.80
2018-08-27T10:20:55.421Z,42.70
2018-08-27T10:21:57.549Z,42.40
2018-08-27T10:22:59.782Z,42.40
2018-08-27T10:24:01.972Z,41.70
2018-08-27T10:25:04.550Z,42.30
2018-08-27T10:26:06.703Z,42.40
2018-08-27T10:27:08.900Z,42.20
2018-08-27T10:28:11.036Z,41.80
2018-08-27T10:29:13.270Z,41.40
2018-08-27T10:30:15.452Z,41.50
2018-08-27T10:31:17.673Z,41.40
2018-08-27T10:32:19.813Z,41.50
2018-08-27T10:33:22.027Z,41.50
2018-08-27T10:34:24.201Z,41.60
2018-08-27T10:35:26.374Z,41.70
2018-08-27T10:36:28.938Z,41.40
2018-08-27T10:37:31.101Z,40.90
2018-08-27T10:38:33.492Z,41.00
2018-08-27T10:39:35.621Z,40.70
2018-08-27T10:40:37.809Z,41.10
2018-08-27T10:41:40.205Z,41.70
2018-08-27T10:42:42.380Z,41.70
2018-08-27T10:43:44.565Z,41.80
2018-08-27T10:44:46.733Z,41.80
2018-08-27T10:45:48.890Z,41.50
2018-08-27T10:46:51.291Z,41.90
2018-08-27T10:47:53.702Z,42.00
2018-08-27T10:48:55.865Z,41.50
2018-08-27T10:49:58.298Z,42.20
2018-08-27T10:51:00.714Z,42.00
2018-08-27T10:52:02.887Z,41.20
2018-08-27T10:53:05.041Z,41.00
2018-08-27T10:54:07.267Z,40.40
2018-08-27T10:55:09.424Z,40.20
2018-08-27T10:56:11.565Z,40.40
2018-08-27T10:57:13.709Z,39.90
2018-08-27T10:58:15.996Z,40.00
2018-08-27T10:59:18.057Z,41.00
2018-08-27T11:00:20.216Z,40.00
2018-08-27T11:01:22.380Z,39.50
2018-08-27T11:02:24.532Z,40.00
2018-08-27T11:03:26.870Z,39.70
2018-08-27T11:04:29.156Z,39.80
2018-08-27T11:05:31.390Z,40.00
2018-08-27T11:06:33.540Z,39.90
2018-08-27T11:07:35.716Z,40.10
2018-08-27T11:08:37.861Z,39.70
2018-08-27T11:09:40.047Z,39.40
2018-08-27T11:10:42.365Z,39.30
2018-08-27T11:11:44.425Z,39.60
2018-08-27T11:12:47.099Z,39.40
2018-08-27T11:13:49.252Z,40.10
2018-08-27T11:14:51.674Z,40.60
2018-08-27T11:15:53.860Z,39.60
2018-08-27T11:16:56.010Z,39.80
2018-08-27T11:17:58.176Z,39.20
2018-08-27T11:19:00.965Z,39.40
2018-08-27T11:20:03.323Z,38.80
2018-08-27T11:21:05.713Z,38.70
2018-08-27T11:22:07.900Z,38.60
2018-08-27T11:23:10.052Z,39.10
2018-08-27T11:24:18.010Z,39.60
2018-08-27T11:25:20.189Z,38.60
2018-08-27T11:26:22.340Z,38.60
2018-08-27T11:27:24.474Z,38.50
2018-08-27T11:28:26.630Z,38.60
2018-08-27T11:29:28.817Z,38.60
2018-08-27T11:30:31.076Z,39.10
2018-08-27T11:31:33.531Z,38.80
2018-08-27T11:32:36.037Z,38.80
2018-08-27T11:33:38.195Z,39.00
2018-08-27T11:34:40.346Z,38.20
2018-08-27T11:35:42.510Z,38.10
2018-08-27T11:36:44.663Z,38.10
2018-08-27T11:37:46.821Z,38.30
2018-08-27T11:38:48.979Z,38.40
2018-08-27T11:39:51.138Z,38.30
2018-08-27T11:40:53.298Z,38.40
2018-08-27T11:41:55.477Z,38.70
2018-08-27T11:42:57.646Z,38.10
2018-08-27T11:43:59.798Z,37.60
2018-08-27T11:45:01.989Z,37.30
2018-08-27T11:46:04.193Z,37.60
2018-08-27T11:47:06.348Z,37.70
2018-08-27T11:48:08.489Z,37.20
2018-08-27T11:49:10.645Z,37.40
2018-08-27T11:50:13.160Z,37.70
2018-08-27T11:51:15.245Z,36.30
2018-08-27T11:52:17.389Z,37.00
2018-08-27T11:53:19.532Z,37.30
2018-08-27T11:54:21.717Z,38.00
2018-08-27T11:55:23.936Z,37.90
2018-08-27T11:56:26.078Z,38.20
2018-08-27T11:57:28.297Z,38.40
2018-08-27T11:58:30.799Z,38.60
2018-08-27T11:59:32.973Z,38.70
2018-08-27T12:00:40.863Z,38.90
2018-08-27T12:01:43.042Z,39.10
2018-08-27T12:02:45.208Z,39.10
2018-08-27T12:03:47.337Z,39.10
2018-08-27T12:04:49.834Z,39.10
2018-08-27T12:05:52.009Z,39.00
2018-08-27T12:06:54.175Z,39.20
2018-08-27T12:07:56.312Z,39.50
2018-08-27T12:08:58.725Z,39.40
2018-08-27T12:10:01.160Z,39.60
2018-08-27T12:11:04.112Z,39.70
2018-08-27T12:12:06.618Z,39.80
2018-08-27T12:13:08.806Z,39.70
2018-08-27T12:14:10.985Z,39.90
2018-08-27T12:15:13.480Z,40.10
2018-08-27T12:16:15.618Z,40.30
2018-08-27T12:17:17.747Z,40.90
2018-08-27T12:18:19.904Z,43.20
2018-08-27T12:19:22.041Z,43.20
2018-08-27T12:20:24.478Z,43.40
2018-08-27T12:21:26.658Z,44.10
2018-08-27T12:22:28.824Z,45.80
2018-08-27T12:23:31.049Z,45.50
2018-08-27T12:24:33.267Z,46.40
2018-08-27T12:25:35.454Z,47.40
2018-08-27T12:26:37.620Z,47.70
2018-08-27T12:27:39.753Z,48.00
2018-08-27T12:28:42.166Z,48.90
2018-08-27T12:29:44.310Z,47.50
2018-08-27T12:30:46.518Z,47.10
2018-08-27T12:31:48.901Z,47.40
2018-08-27T12:32:51.087Z,47.20
2018-08-27T12:33:53.229Z,47.50
2018-08-27T12:34:55.509Z,47.20
2018-08-27T12:35:57.674Z,46.50
2018-08-27T12:36:59.838Z,47.00
2018-08-27T12:38:01.994Z,47.60
2018-08-27T12:39:06.681Z,47.50
2018-08-27T12:40:08.881Z,47.30
2018-08-27T12:41:11.173Z,47.90
2018-08-27T12:42:13.533Z,47.10
2018-08-27T12:43:15.684Z,46.50
2018-08-27T12:44:17.859Z,45.70
2018-08-27T12:45:20.113Z,47.60
2018-08-27T12:46:22.268Z,47.50
2018-08-27T12:47:24.682Z,47.00
2018-08-27T12:48:26.845Z,46.50
2018-08-27T12:49:29.010Z,47.30
2018-08-27T12:50:31.204Z,47.50
2018-08-27T12:51:33.414Z,46.50
2018-08-27T12:52:35.603Z,46.70
2018-08-27T12:53:37.767Z,47.50
2018-08-27T12:54:39.935Z,47.10
2018-08-27T12:55:42.103Z,47.20
2018-08-27T12:56:44.257Z,47.40
2018-08-27T12:57:46.458Z,45.80
2018-08-27T12:58:48.617Z,48.00
2018-08-27T12:59:51.077Z,47.50
2018-08-27T13:00:53.237Z,47.50
2018-08-27T13:01:55.369Z,47.20
2018-08-27T13:02:57.504Z,46.70
2018-08-27T13:03:59.880Z,47.00
2018-08-27T13:05:02.029Z,46.90
2018-08-27T13:06:04.277Z,46.70
2018-08-27T13:07:06.438Z,46.80
2018-08-27T13:08:08.642Z,47.50
2018-08-27T13:09:10.948Z,46.80
2018-08-27T13:10:13.411Z,46.70
2018-08-27T13:11:15.632Z,46.30
2018-08-27T13:12:17.783Z,45.70
2018-08-27T13:13:20.085Z,46.00
2018-08-27T13:14:22.266Z,46.10
2018-08-27T13:15:24.427Z,46.40
2018-08-27T13:16:26.573Z,45.70
2018-08-27T13:17:29.030Z,45.80
2018-08-27T13:18:31.181Z,45.50
2018-08-27T13:19:33.437Z,45.30
2018-08-27T13:20:35.610Z,46.10
2018-08-27T13:21:37.781Z,46.10
2018-08-27T13:22:39.918Z,46.00
2018-08-27T13:23:42.094Z,46.00